.
WxDataArchive / Data Records for 2012-09-16
2012-09-15 September 2012 2012-09-17

Data Records for Sunday, 16 September 2012

Time	Temp	Chill	HIndex	Humid	Dewpt	 Wind 	HiWind	WindDir	Rain 	Barom 
-----	----	-----	------	-----	-----	------	------	-------	-----	----- 
00:00	54.2	54.2	54.2	81	48.5	0	0	---	0.00	30.161 
00:05	54.1	54.1	54.1	82	48.7	0	0	---	0.00	30.161 
00:10	54.1	54.1	54.1	82	48.7	0	0	---	0.00	30.161 
00:15	53.9	53.9	53.9	83	48.9	0	0	---	0.00	30.164 
00:20	53.9	53.9	53.9	83	48.9	0	0	---	0.00	30.164 
00:25	53.8	53.8	53.8	83	48.8	0	0	---	0.00	30.164 
00:30	53.5	53.5	53.5	83	48.5	0	0	---	0.00	30.161 
00:35	53.3	53.3	53.3	83	48.3	0	0	---	0.00	30.161 
00:40	53.2	53.2	53.2	83	48.2	0	0	---	0.00	30.161 
00:45	53.1	53.1	53.1	83	48.1	0	0	---	0.00	30.163 
00:50	53.1	53.1	53.1	84	48.4	0	0	---	0.00	30.163 
00:55	53.1	53.1	53.1	84	48.4	0	0	---	0.00	30.163 
01:00	53.1	53.1	53.1	84	48.4	0	0	---	0.00	30.159 
01:05	52.9	52.9	52.9	84	48.2	0	0	---	0.00	30.159 
01:10	52.8	52.8	52.8	84	48.1	0	0	---	0.00	30.159 
01:15	52.8	52.8	52.8	84	48.1	0	0	---	0.00	30.157 
01:20	52.6	52.6	52.6	84	47.9	0	0	---	0.00	30.157 
01:25	52.6	52.6	52.6	84	47.9	0	0	---	0.00	30.157 
01:30	52.6	52.6	52.6	84	47.9	0	0	---	0.00	30.154 
01:35	52.6	52.6	52.6	83	47.6	0	0	---	0.00	30.154 
01:40	52.6	52.6	52.6	83	47.6	0	0	---	0.00	30.154 
01:45	52.8	52.8	52.8	83	47.8	0	0	---	0.00	30.155 
01:50	52.8	52.8	52.8	82	47.5	0	0	---	0.00	30.155 
01:55	52.8	52.8	52.8	82	47.5	0	0	---	0.00	30.155 
02:00	52.8	52.8	52.8	81	47.1	0	0	---	0.00	30.157 
02:05	52.8	52.8	52.8	81	47.1	0	0	---	0.00	30.157 
02:10	52.8	52.8	52.8	81	47.1	0	0	---	0.00	30.157 
02:15	52.8	52.8	52.8	81	47.1	0	0	---	0.00	30.152 
02:20	52.6	52.6	52.6	81	46.9	0	0	---	0.00	30.152 
02:25	52.6	52.6	52.6	81	46.9	0	0	---	0.00	30.152 
02:30	52.6	52.6	52.6	81	46.9	0	0	---	0.00	30.147 
02:35	52.6	52.6	52.6	81	46.9	0	0	---	0.00	30.147 
02:40	52.5	52.5	52.5	81	46.8	0	0	---	0.00	30.147 
02:45	52.5	52.5	52.5	81	46.8	0	0	---	0.00	30.143 
02:50	52.5	52.5	52.5	81	46.8	0	0	---	0.00	30.143 
02:55	52.5	52.5	52.5	81	46.8	0	0	---	0.00	30.143 
03:00	52.5	52.5	52.5	81	46.8	0	0	---	0.00	30.141 
03:05	52.5	52.5	52.5	81	46.8	0	0	---	0.00	30.141 
03:10	52.6	52.6	52.6	81	46.9	0	0	---	0.00	30.141 
03:15	52.6	52.6	52.6	81	46.9	0	0	---	0.00	30.139 
03:20	52.8	52.8	52.8	81	47.1	0	0	---	0.00	30.139 
03:25	52.8	52.8	52.8	81	47.1	0	0	---	0.00	30.139 
03:30	52.6	52.6	52.6	81	46.9	0	0	---	0.00	30.135 
03:35	52.6	52.6	52.6	81	46.9	0	0	---	0.00	30.135 
03:40	52.5	52.5	52.5	81	46.8	0	0	---	0.00	30.135 
03:45	52.5	52.5	52.5	82	47.2	0	0	---	0.00	30.130 
03:50	52.5	52.5	52.5	82	47.2	0	0	---	0.00	30.130 
03:55	52.3	52.3	52.3	81	46.6	0	0	---	0.00	30.130 
04:00	52.2	52.2	52.2	81	46.5	0	0	---	0.00	30.130 
04:05	52.2	52.2	52.2	81	46.5	0	0	---	0.00	30.130 
04:10	52.2	52.2	52.2	81	46.5	0	0	---	0.00	30.130 
04:15	52.3	52.3	52.3	81	46.6	0	0	---	0.00	30.128 
04:20	52.3	52.3	52.3	80	46.3	0	0	---	0.00	30.128 
04:25	52.3	52.3	52.3	80	46.3	0	0	---	0.00	30.128 
04:30	52.3	52.3	52.3	80	46.3	0	0	---	0.00	30.128 
04:35	52.2	52.2	52.2	81	46.5	0	0	---	0.00	30.128 
04:40	52.0	52.0	52.0	81	46.4	0	0	---	0.00	30.128 
04:45	51.9	51.9	51.9	81	46.3	0	0	---	0.00	30.127 
04:50	51.6	51.6	51.6	81	46.0	0	0	---	0.00	30.127 
04:55	51.4	51.4	51.4	81	45.8	0	0	---	0.00	30.127 
05:00	51.3	51.3	51.3	82	46.0	0	0	---	0.00	30.128 
05:05	51.0	51.0	51.0	82	45.7	0	0	---	0.00	30.128 
05:10	50.8	50.8	50.8	82	45.5	0	0	---	0.00	30.128 
05:15	50.7	50.7	50.7	83	45.7	0	0	---	0.00	30.128 
05:20	50.5	50.5	50.5	83	45.5	0	0	---	0.00	30.128 
05:25	50.4	50.4	50.4	83	45.4	0	0	---	0.00	30.128 
05:30	50.2	50.2	50.2	84	45.6	0	0	---	0.00	30.131 
05:35	49.9	49.9	49.9	84	45.3	0	0	---	0.00	30.131 
05:40	49.8	49.8	49.8	84	45.2	0	0	---	0.00	30.131 
05:45	49.6	49.6	49.6	84	45.0	0	0	---	0.00	30.131 
05:50	49.5	49.5	49.5	85	45.2	0	0	---	0.00	30.131 
05:55	49.4	49.4	49.4	86	45.4	0	0	---	0.00	30.131 
06:00	49.4	49.4	49.4	86	45.4	0	0	---	0.00	30.137 
06:05	49.4	49.4	49.4	87	45.7	0	0	---	0.00	30.137 
06:10	49.2	49.2	49.2	87	45.5	0	0	---	0.00	30.137 
06:15	49.2	49.2	49.2	87	45.5	0	0	---	0.00	30.143 
06:20	49.2	49.2	49.2	87	45.5	0	0	---	0.00	30.143 
06:25	49.1	49.1	49.1	88	45.7	0	0	---	0.00	30.143 
06:30	48.9	48.9	48.9	88	45.5	0	0	---	0.00	30.143 
06:35	48.9	48.9	48.9	88	45.5	0	0	---	0.00	30.143 
06:40	48.8	48.8	48.8	88	45.4	0	0	---	0.00	30.143 
06:45	48.8	48.8	48.8	88	45.4	0	0	---	0.00	30.143 
06:50	48.6	48.6	48.6	88	45.2	0	0	---	0.00	30.143 
06:55	48.5	48.5	48.5	88	45.1	0	0	---	0.00	30.143 
07:00	48.3	48.3	48.3	88	44.9	0	0	---	0.00	30.146 
07:05	48.2	48.2	48.2	89	45.1	0	0	---	0.00	30.146 
07:10	48.2	48.2	48.2	89	45.1	0	0	---	0.00	30.146 
07:15	48.0	48.0	48.0	89	44.9	0	0	---	0.00	30.148 
07:20	47.9	47.9	47.9	89	44.8	0	0	---	0.00	30.148 
07:25	47.9	47.9	47.9	89	44.8	0	0	---	0.00	30.148 
07:30	47.7	47.7	47.7	90	44.9	0	0	---	0.00	30.149 
07:35	47.7	47.7	47.7	90	44.9	0	0	---	0.00	30.149 
07:40	47.7	47.7	47.7	90	44.9	0	0	---	0.00	30.149 
07:45	47.6	47.6	47.6	90	44.8	0	0	---	0.00	30.150 
07:50	47.7	47.7	47.7	91	45.2	0	0	---	0.00	30.150 
07:55	47.7	47.7	47.7	91	45.2	0	0	---	0.00	30.150 
08:00	48.0	48.0	48.0	91	45.5	0	0	---	0.00	30.151 
08:05	48.2	48.2	48.2	92	46.0	0	0	---	0.00	30.151 
08:10	48.5	48.5	48.5	92	46.3	0	0	---	0.00	30.151 
08:15	48.8	48.8	48.8	92	46.6	0	0	---	0.00	30.156 
08:20	49.1	49.1	49.1	92	46.9	0	0	---	0.00	30.156 
08:25	49.4	49.4	49.4	92	47.2	0	0	---	0.00	30.156 
08:30	49.6	49.6	49.6	92	47.4	0	0	---	0.00	30.154 
08:35	50.2	50.2	50.2	92	48.0	0	0	---	0.00	30.154 
08:40	50.8	50.8	50.8	92	48.6	0	0	---	0.00	30.154 
08:45	51.4	51.4	51.4	92	49.2	0	0	---	0.00	30.152 
08:50	52.0	52.0	52.0	91	49.5	0	0	---	0.00	30.152 
08:55	52.8	52.8	52.8	89	49.6	0	0	---	0.00	30.152 
09:00	53.5	53.5	53.5	87	49.7	0	0	---	0.00	30.150 
09:05	54.4	54.4	54.4	84	49.7	0	0	---	0.00	30.150 
09:10	55.1	55.1	55.1	81	49.4	0	0	---	0.00	30.150 
09:15	55.9	55.9	55.9	79	49.5	0	1	90	0.00	30.150 
09:20	56.5	56.5	56.5	77	49.4	0	1	90	0.00	30.150 
09:25	57.0	57.0	57.0	76	49.5	0	1	90	0.00	30.150 
09:30	57.5	57.5	57.5	75	49.6	0	0	---	0.00	30.149 
09:35	58.3	58.3	58.3	73	49.7	0	1	90	0.00	30.149 
09:40	58.9	58.9	58.9	72	49.9	0	1	90	0.00	30.149 
09:45	59.6	59.6	59.6	70	49.8	0	1	90	0.00	30.147 
09:50	60.4	60.4	60.4	69	50.2	0	2	90	0.00	30.147 
09:55	61.0	61.0	61.0	68	50.4	0	1	90	0.00	30.147 
10:00	61.6	61.6	61.6	66	50.1	0	2	90	0.00	30.145 
10:05	62.4	62.4	62.4	65	50.5	0	1	90	0.00	30.145 
10:10	63.5	63.5	63.5	62	50.2	0	1	90	0.00	30.145 
10:15	64.7	64.7	64.7	60	50.5	0	3	248	0.00	30.145 
10:20	65.5	65.5	65.5	59	50.8	0	2	248	0.00	30.145 
10:25	66.1	66.1	66.1	57	50.4	0	3	248	0.00	30.145 
10:30	66.8	66.8	66.8	57	51.1	0	1	248	0.00	30.144 
10:35	67.4	67.4	67.4	55	50.7	0	1	248	0.00	30.144 
10:40	67.9	67.9	67.9	51	49.1	0	2	248	0.00	30.144 
10:45	68.4	68.4	68.4	51	49.6	0	2	248	0.00	30.140 
10:50	69.1	69.1	69.1	52	50.7	0	1	248	0.00	30.140 
10:55	69.4	69.4	69.4	50	49.9	0	3	248	0.00	30.140 
11:00	69.8	69.8	69.8	49	49.8	0	1	248	0.00	30.134 
11:05	70.3	70.3	70.3	48	49.7	0	2	248	0.00	30.134 
11:10	70.9	70.9	70.9	48	50.2	0	1	158	0.00	30.134 
11:15	71.1	71.1	71.1	47	49.8	0	2	158	0.00	30.130 
11:20	71.8	71.8	71.8	47	50.5	0	2	158	0.00	30.130 
11:25	72.3	72.3	72.3	45	49.8	1	3	90	0.00	30.130 
11:30	72.7	72.7	72.7	42	48.3	0	1	90	0.00	30.125 
11:35	73.2	73.2	73.2	46	51.2	0	2	90	0.00	30.125 
11:40	73.5	73.5	73.5	42	49.0	0	3	90	0.00	30.125 
11:45	73.3	73.3	73.3	42	48.8	0	2	90	0.00	30.124 
11:50	72.8	72.8	72.8	43	49.0	1	4	292	0.00	30.124 
11:55	73.0	73.0	73.0	46	51.0	0	3	292	0.00	30.124 
12:00	73.2	73.2	73.2	42	48.7	1	4	292	0.00	30.122 
12:05	73.5	73.5	73.5	43	49.6	0	2	292	0.00	30.122 
12:10	74.2	74.2	74.2	43	50.2	0	2	292	0.00	30.122 
12:15	74.4	74.4	74.4	41	49.1	1	2	270	0.00	30.119 
12:20	74.7	74.7	74.7	40	48.8	0	3	270	0.00	30.119 
12:25	75.1	75.1	77.4	38	47.7	0	2	270	0.00	30.119 
12:30	74.7	74.7	74.7	40	48.8	1	3	270	0.00	30.111 
12:35	74.7	74.7	74.7	40	48.8	0	2	270	0.00	30.111 
12:40	75.1	75.1	77.6	42	50.4	1	3	270	0.00	30.111 
12:45	75.3	75.3	77.6	41	50.0	0	2	270	0.00	30.108 
12:50	75.4	75.4	77.5	37	47.3	1	3	270	0.00	30.108 
12:55	75.8	75.8	77.8	41	50.4	0	1	270	0.00	30.108 
13:00	75.8	75.8	77.5	35	46.2	1	2	292	0.00	30.106 
13:05	75.4	75.4	77.6	39	48.7	1	3	292	0.00	30.106 
13:10	75.6	75.6	77.5	36	46.7	1	3	45	0.00	30.106 
13:15	75.3	75.3	77.5	39	48.6	1	2	248	0.00	30.103 
13:20	75.6	75.6	77.5	36	46.7	1	3	248	0.00	30.103 
13:25	75.4	75.4	77.4	36	46.6	1	3	270	0.00	30.103 
13:30	75.8	75.8	77.7	38	48.4	0	2	270	0.00	30.094 
13:35	75.8	75.8	77.5	35	46.2	1	3	270	0.00	30.094 
13:40	75.8	75.8	77.7	38	48.4	0	3	292	0.00	30.094 
13:45	76.1	76.1	77.7	37	47.9	1	4	90	0.00	30.092 
13:50	76.3	76.3	77.8	38	48.8	1	3	90	0.00	30.092 
13:55	76.3	76.3	77.8	37	48.1	0	2	338	0.00	30.092 
14:00	76.7	76.7	78.1	41	51.2	0	1	315	0.00	30.084 
14:05	76.8	76.8	77.9	36	47.8	1	2	315	0.00	30.084 
14:10	76.7	76.7	77.9	35	47.0	1	3	315	0.00	30.084 
14:15	76.5	76.5	77.9	37	48.3	0	3	315	0.00	30.076 
14:20	76.7	76.7	77.9	35	47.0	1	3	90	0.00	30.076 
14:25	76.5	76.5	77.8	35	46.8	1	3	292	0.00	30.076 
14:30	76.7	76.7	77.8	34	46.2	1	3	90	0.00	30.070 
14:35	76.5	76.5	77.5	31	43.6	2	6	112	0.00	30.070 
14:40	76.5	76.5	77.5	31	43.6	1	6	90	0.00	30.070 
14:45	76.5	76.5	77.5	31	43.6	1	6	90	0.00	30.064 
14:50	76.8	76.8	77.8	33	45.5	1	4	90	0.00	30.064 
14:55	76.8	76.8	77.8	33	45.5	1	5	292	0.00	30.064 
15:00	76.7	76.7	77.6	31	43.8	1	4	90	0.00	30.060 
15:05	76.7	76.7	77.5	30	42.9	1	3	292	0.00	30.060 
15:10	76.7	76.7	77.6	31	43.8	1	5	90	0.00	30.060 
15:15	76.8	76.8	77.7	32	44.7	0	2	90	0.00	30.058 
15:20	77.2	77.2	77.9	33	45.8	0	2	68	0.00	30.058 
15:25	77.2	77.2	77.8	30	43.3	1	4	112	0.00	30.058 
15:30	77.0	77.0	77.6	29	42.3	1	3	248	0.00	30.053 
15:35	77.0	77.0	77.5	28	41.4	1	3	248	0.00	30.053 
15:40	76.8	76.8	77.5	29	42.1	1	4	270	0.00	30.053 
15:45	77.2	77.2	77.8	30	43.3	0	2	270	0.00	30.047 
15:50	77.2	77.2	77.8	31	44.2	1	4	22	0.00	30.047 
15:55	76.8	76.8	77.6	30	43.0	1	4	45	0.00	30.047 
16:00	76.7	76.7	77.5	30	42.9	1	4	45	0.00	30.045 
16:05	76.3	76.3	77.4	30	42.6	1	3	90	0.00	30.045 
16:10	76.3	76.3	77.5	31	43.4	0	2	90	0.00	30.045 
16:15	76.3	76.3	77.7	35	46.6	1	3	90	0.00	30.040 
16:20	76.3	76.3	77.6	34	45.8	1	3	270	0.00	30.040 
16:25	76.3	76.3	77.3	29	41.7	1	3	270	0.00	30.040 
16:30	76.1	76.1	77.4	31	43.3	1	4	270	0.00	30.034 
16:35	76.0	76.0	77.5	34	45.6	0	2	270	0.00	30.034 
16:40	75.8	75.8	77.2	30	42.1	0	2	270	0.00	30.034 
16:45	75.8	75.8	77.3	32	43.8	1	3	270	0.00	30.032 
16:50	75.6	75.6	77.1	29	41.1	1	3	292	0.00	30.032 
16:55	75.6	75.6	77.2	31	42.8	0	1	292	0.00	30.032 
17:00	75.6	75.6	77.1	29	41.1	0	2	292	0.00	30.032 
17:05	75.6	75.6	77.1	29	41.1	0	2	292	0.00	30.032 
17:10	75.6	75.6	77.1	30	42.0	1	4	0	0.00	30.032 
17:15	75.4	75.4	77.1	31	42.6	0	3	45	0.00	30.031 
17:20	75.4	75.4	77.1	31	42.6	0	1	315	0.00	30.031 
17:25	75.4	75.4	77.1	30	41.8	1	3	315	0.00	30.031 
17:30	75.4	75.4	77.2	32	43.5	0	2	315	0.00	30.030 
17:35	75.4	75.4	77.4	35	45.8	0	2	315	0.00	30.030 
17:40	75.1	75.1	77.0	31	42.4	0	3	68	0.00	30.030 
17:45	74.9	74.9	74.9	32	43.0	0	2	68	0.00	30.027 
17:50	74.7	74.7	74.7	34	44.4	0	1	68	0.00	30.027 
17:55	74.6	74.6	74.6	32	42.8	1	4	270	0.00	30.027 
18:00	74.6	74.6	74.6	32	42.8	0	2	270	0.00	30.025 
18:05	74.6	74.6	74.6	34	44.4	0	1	270	0.00	30.025 
18:10	74.6	74.6	74.6	33	43.6	0	1	270	0.00	30.025 
18:15	74.6	74.6	74.6	31	42.0	0	2	270	0.00	30.023 
18:20	74.6	74.6	74.6	31	42.0	0	2	270	0.00	30.023 
18:25	74.4	74.4	74.4	32	42.6	0	2	270	0.00	30.023 
18:30	74.2	74.2	74.2	33	43.2	0	1	270	0.00	30.020 
18:35	74.0	74.0	74.0	34	43.8	0	2	270	0.00	30.020 
18:40	73.7	73.7	73.7	32	42.0	0	2	270	0.00	30.020 
18:45	73.7	73.7	73.7	35	44.3	0	1	270	0.00	30.021 
18:50	73.5	73.5	73.5	34	43.4	0	2	270	0.00	30.021 
18:55	73.3	73.3	73.3	34	43.2	0	1	270	0.00	30.021 
19:00	73.3	73.3	73.3	33	42.4	0	2	270	0.00	30.020 
19:05	73.2	73.2	73.2	35	43.9	0	0	---	0.00	30.020 
19:10	72.8	72.8	72.8	35	43.5	0	0	---	0.00	30.020 
19:15	72.5	72.5	72.5	36	44.0	0	0	---	0.00	30.020 
19:20	72.1	72.1	72.1	37	44.4	0	0	---	0.00	30.020 
19:25	71.8	71.8	71.8	38	44.8	0	0	---	0.00	30.020 
19:30	71.5	71.5	71.5	39	45.2	0	0	---	0.00	30.019 
19:35	70.9	70.9	70.9	39	44.7	0	0	---	0.00	30.019 
19:40	70.6	70.6	70.6	40	45.1	0	0	---	0.00	30.019 
19:45	70.1	70.1	70.1	42	45.9	0	0	---	0.00	30.021 
19:50	69.6	69.6	69.6	43	46.1	0	0	---	0.00	30.021 
19:55	68.9	68.9	68.9	44	46.1	0	0	---	0.00	30.021 
20:00	68.3	68.3	68.3	46	46.7	0	0	---	0.00	30.022 
20:05	67.8	67.8	67.8	48	47.4	0	0	---	0.00	30.022 
20:10	67.3	67.3	67.3	49	47.5	0	0	---	0.00	30.022 
20:15	66.6	66.6	66.6	48	46.3	0	0	---	0.00	30.018 
20:20	66.1	66.1	66.1	50	46.9	0	0	---	0.00	30.018 
20:25	65.6	65.6	65.6	51	47.0	0	0	---	0.00	30.018 
20:30	65.2	65.2	65.2	53	47.6	0	0	---	0.00	30.019 
20:35	64.7	64.7	64.7	54	47.7	0	0	---	0.00	30.019 
20:40	64.0	64.0	64.0	55	47.5	0	0	---	0.00	30.019 
20:45	63.5	63.5	63.5	56	47.5	0	0	---	0.00	30.022 
20:50	63.2	63.2	63.2	57	47.7	0	0	---	0.00	30.022 
20:55	62.7	62.7	62.7	59	48.2	0	0	---	0.00	30.022 
21:00	62.4	62.4	62.4	59	47.9	0	0	---	0.00	30.025 
21:05	62.1	62.1	62.1	61	48.5	0	0	---	0.00	30.025 
21:10	61.8	61.8	61.8	62	48.6	0	0	---	0.00	30.025 
21:15	61.3	61.3	61.3	63	48.6	0	0	---	0.00	30.018 
21:20	61.2	61.2	61.2	64	48.9	0	0	---	0.00	30.018 
21:25	60.9	60.9	60.9	64	48.6	0	0	---	0.00	30.018 
21:30	60.5	60.5	60.5	65	48.7	0	0	---	0.00	30.018 
21:35	60.2	60.2	60.2	65	48.4	0	0	---	0.00	30.018 
21:40	59.9	59.9	59.9	65	48.1	0	0	---	0.00	30.018 
21:45	59.8	59.8	59.8	66	48.4	0	0	---	0.00	30.019 
21:50	59.5	59.5	59.5	67	48.5	0	0	---	0.00	30.019 
21:55	59.3	59.3	59.3	67	48.3	0	0	---	0.00	30.019 
22:00	59.0	59.0	59.0	68	48.5	0	0	---	0.00	30.021 
22:05	58.9	58.9	58.9	68	48.4	0	0	---	0.00	30.021 
22:10	58.7	58.7	58.7	69	48.6	0	0	---	0.00	30.021 
22:15	58.4	58.4	58.4	69	48.3	0	0	---	0.00	30.015 
22:20	58.3	58.3	58.3	71	48.9	0	0	---	0.00	30.015 
22:25	58.1	58.1	58.1	71	48.7	0	0	---	0.00	30.015 
22:30	57.8	57.8	57.8	71	48.5	0	0	---	0.00	30.017 
22:35	57.6	57.6	57.6	72	48.6	0	0	---	0.00	30.017 
22:40	57.5	57.5	57.5	72	48.5	0	0	---	0.00	30.017 
22:45	57.3	57.3	57.3	74	49.1	0	0	---	0.00	30.015 
22:50	57.0	57.0	57.0	74	48.8	0	0	---	0.00	30.015 
22:55	56.9	56.9	56.9	75	49.1	0	0	---	0.00	30.015 
23:00	56.7	56.7	56.7	75	48.9	0	0	---	0.00	30.019 
23:05	56.6	56.6	56.6	76	49.1	0	0	---	0.00	30.019 
23:10	56.5	56.5	56.5	77	49.4	0	0	---	0.00	30.019 
23:15	56.3	56.3	56.3	77	49.2	0	0	---	0.00	30.018 
23:20	56.2	56.2	56.2	78	49.4	0	0	---	0.00	30.018 
23:25	56.0	56.0	56.0	78	49.2	0	0	---	0.00	30.018 
23:30	55.9	55.9	55.9	78	49.1	0	0	---	0.00	30.014 
23:35	55.7	55.7	55.7	78	48.9	0	0	---	0.00	30.014 
23:40	55.6	55.6	55.6	79	49.2	0	0	---	0.00	30.014 
23:45	55.4	55.4	55.4	79	49.0	0	0	---	0.00	30.018 
23:50	55.4	55.4	55.4	80	49.3	0	0	---	0.00	30.018 
23:55	55.3	55.3	55.3	80	49.2	0	0	---	0.00	30.018 

CoCoRaHS
IN-AL-39
A2 Web Hosting
Creative Commons License
GoDaddy
search engine by freefind advanced

loaded 2018-11-15 14:28:18 • last modified 2010-11-18 10:43:29
Privacy PolicyDisclaimer
• wx.awcolley.com is powered by PmWiki v.2002016 •
• all content (unless otherwise noted) © 2018 A W Colley